KPSK/PSK METAR and TAF weather

Enter ICAO airport designator
Station Type Date Time Source
KPSK METAR 2019/12/08 01:15 UTC NOAA

KPSK 080115Z AUTO 08004KT 10SM CLR 03/01 A3036 RMK AO2 T00260005


Station Type Date Time Source
KPSK Decoded METAR 2019/12/08 01:15 UTC NOAA

Dublin / New River Valley, VA, United States (KPSK) 37-08N 080-41W
Dec 07, 2019 - 08:15 PM EST / 2019.12.08 0115 UTC
Wind: from the E (080 degrees) at 5 MPH (4 KT):0
Visibility: 10 mile(s):0
Sky conditions: clear
Temperature: 36.7 F (2.6 C)
Dew Point: 32.9 F (0.5 C)
Relative Humidity: 86%
Pressure (altimeter): 30.36 in. Hg (1028 hPa)
ob: KPSK 080115Z AUTO 08004KT 10SM CLR 03/01 A3036 RMK AO2 T00260005
cycle: 1

Station Type Date Time Source
KPSK TAF UTC NOAA

Error!

Example: see airport list